Time;durP1;ratioP1;P1;durP2;ratioP2;P2;SDS_P1;SDS_P2;PMS_P1;PMS_P2;Temp;Humidity;BMP_temperature;BMP_pressure;BME280_temperature;BME280_humidity;BME280_pressure;Samples;Min_cycle;Max_cycle;Signal;HPM_P1;HPM_P2
2021/08/04 00:00:04;;;;;;;3.93;2.37;;;19.80;99.90;;;;;;4922053;29;20494;-73
2021/08/04 00:02:33;;;;;;;2.90;2.70;;;19.80;99.90;;;;;;4923138;29;20462;-77
2021/08/04 00:05:00;;;;;;;3.17;2.50;;;19.70;99.90;;;;;;4923328;29;20504;-76
2021/08/04 00:07:27;;;;;;;3.40;2.83;;;19.70;99.90;;;;;;4923176;29;20465;-76
2021/08/04 00:09:54;;;;;;;2.90;2.53;;;19.70;99.90;;;;;;4922853;29;20457;-75
2021/08/04 00:12:21;;;;;;;3.27;2.60;;;19.70;99.90;;;;;;4923067;29;20536;-76
2021/08/04 00:14:47;;;;;;;2.60;2.40;;;19.60;99.90;;;;;;4922426;29;20488;-77
2021/08/04 00:17:14;;;;;;;3.00;2.70;;;19.70;99.90;;;;;;4922737;29;20567;-76
2021/08/04 00:19:42;;;;;;;2.67;2.47;;;19.60;99.90;;;;;;4922923;29;20469;-75
2021/08/04 00:22:09;;;;;;;4.13;2.90;;;19.60;99.90;;;;;;4922659;29;20796;-76
2021/08/04 00:24:36;;;;;;;3.03;2.43;;;19.50;99.90;;;;;;4922208;29;20457;-76
2021/08/04 00:27:04;;;;;;;2.77;2.57;;;19.50;99.90;;;;;;4923290;29;20469;-76
2021/08/04 00:29:30;;;;;;;2.90;2.57;;;19.50;99.90;;;;;;4934625;29;20457;-75
2021/08/04 00:31:57;;;;;;;2.80;2.60;;;19.50;99.90;;;;;;4924801;29;20486;-75
2021/08/04 00:34:24;;;;;;;3.20;2.70;;;19.50;99.90;;;;;;4922347;29;20472;-75
2021/08/04 00:36:52;;;;;;;4.10;2.83;;;19.50;99.90;;;;;;4920596;29;20476;-76
2021/08/04 00:39:18;;;;;;;3.03;2.70;;;19.40;99.90;;;;;;4920531;29;20493;-74
2021/08/04 00:41:45;;;;;;;2.70;2.50;;;19.40;99.90;;;;;;4919928;29;20465;-75
2021/08/04 00:44:12;;;;;;;2.60;2.40;;;19.40;99.90;;;;;;4920103;29;20457;-75
2021/08/04 00:46:40;;;;;;;2.53;2.33;;;19.40;99.90;;;;;;4920240;29;20536;-75
2021/08/04 00:49:07;;;;;;;2.70;2.50;;;19.40;99.90;;;;;;4920047;29;20493;-75
2021/08/04 00:51:37;;;;;;;2.90;2.63;;;19.40;99.90;;;;;;4920256;29;20466;-76
2021/08/04 00:54:06;;;;;;;3.80;3.20;;;19.40;99.90;;;;;;4920348;29;20465;-75
2021/08/04 00:56:33;;;;;;;2.70;2.50;;;19.40;99.90;;;;;;4919992;29;20953;-75
2021/08/04 00:59:01;;;;;;;3.27;2.90;;;19.40;99.90;;;;;;4919790;29;20752;-75
2021/08/04 01:01:33;;;;;;;4.50;2.67;;;19.40;99.90;;;;;;4919952;29;20462;-75
2021/08/04 01:04:19;;;;;;;3.13;2.93;;;19.30;99.90;;;;;;4919861;29;20468;-75
2021/08/04 01:06:51;;;;;;;4.13;2.90;;;19.30;99.90;;;;;;4919878;29;20477;-75
2021/08/04 01:09:21;;;;;;;3.00;2.70;;;19.30;99.90;;;;;;4919192;29;20456;-76
2021/08/04 01:11:54;;;;;;;2.67;2.47;;;19.30;99.90;;;;;;4919833;29;20532;-75
2021/08/04 01:14:26;;;;;;;2.50;2.30;;;19.20;99.90;;;;;;4919739;29;20497;-76
2021/08/04 01:16:53;;;;;;;2.90;2.10;;;19.20;99.90;;;;;;4920102;29;20465;-76
2021/08/04 01:19:31;;;;;;;2.93;2.70;;;19.20;99.90;;;;;;4918827;29;20814;-76
2021/08/04 01:22:09;;;;;;;6.23;3.20;;;19.10;99.90;;;;;;4919356;29;20814;-75
2021/08/04 01:24:45;;;;;;;2.97;2.67;;;19.10;99.90;;;;;;4919227;29;20524;-75
2021/08/04 01:27:15;;;;;;;3.93;3.00;;;19.00;99.90;;;;;;4918983;29;20461;-74
2021/08/04 01:29:42;;;;;;;3.90;2.90;;;19.00;99.90;;;;;;4919299;29;20457;-75
2021/08/04 01:32:10;;;;;;;3.10;2.80;;;18.90;99.90;;;;;;4919093;29;20461;-74
2021/08/04 01:34:40;;;;;;;3.43;3.13;;;18.80;99.90;;;;;;4918869;29;20540;-75
2021/08/04 01:37:09;;;;;;;7.20;2.70;;;18.80;99.90;;;;;;4918786;29;20476;-75
2021/08/04 01:39:36;;;;;;;3.07;2.77;;;18.80;99.90;;;;;;4919001;29;20811;-76
2021/08/04 01:42:05;;;;;;;2.93;2.73;;;18.80;99.90;;;;;;4918941;29;20788;-76
2021/08/04 01:44:35;;;;;;;3.80;3.03;;;18.70;99.90;;;;;;4918973;29;20454;-75
2021/08/04 01:47:02;;;;;;;3.33;3.03;;;18.70;99.90;;;;;;4918587;29;20477;-75
2021/08/04 01:49:30;;;;;;;3.43;3.03;;;18.70;99.90;;;;;;4919031;29;20469;-74
2021/08/04 01:51:58;;;;;;;8.43;3.40;;;18.70;99.90;;;;;;4918601;29;20461;-74
2021/08/04 01:54:27;;;;;;;4.60;2.93;;;18.80;99.90;;;;;;4917792;29;20964;-75
2021/08/04 01:56:53;;;;;;;3.83;3.13;;;18.80;99.90;;;;;;4918696;29;20465;-75
2021/08/04 01:59:20;;;;;;;4.10;3.57;;;18.70;99.90;;;;;;4918258;29;20488;-75
2021/08/04 02:01:49;;;;;;;7.90;3.70;;;18.70;99.90;;;;;;4918360;29;20936;-75
2021/08/04 02:04:15;;;;;;;7.93;3.10;;;18.70;99.90;;;;;;4918769;29;20469;-75
2021/08/04 02:06:51;;;;;;;4.00;3.00;;;18.70;99.90;;;;;;4918793;29;20461;-76
2021/08/04 02:09:25;;;;;;;3.67;3.10;;;18.70;99.90;;;;;;4921328;29;20444;-75
2021/08/04 02:11:59;;;;;;;3.77;3.40;;;18.60;99.90;;;;;;4922418;29;20446;-75
2021/08/04 02:14:31;;;;;;;5.67;3.47;;;18.60;99.90;;;;;;4922029;29;20492;-75
2021/08/04 02:17:07;;;;;;;5.00;2.97;;;18.60;99.90;;;;;;4921220;29;20453;-75
2021/08/04 02:19:43;;;;;;;3.73;3.30;;;18.60;99.90;;;;;;4918976;29;20473;-76
2021/08/04 02:22:15;;;;;;;3.27;2.97;;;18.60;99.90;;;;;;4918664;29;20449;-75
2021/08/04 02:24:48;;;;;;;4.03;3.37;;;18.60;99.90;;;;;;4920215;29;20893;-75
2021/08/04 02:27:16;;;;;;;4.00;3.60;;;18.50;99.90;;;;;;4918579;29;20445;-76
2021/08/04 02:29:45;;;;;;;4.23;3.50;;;18.50;99.90;;;;;;4920244;29;20473;-76
2021/08/04 02:32:13;;;;;;;4.03;3.40;;;18.50;99.90;;;;;;4919132;29;20538;-75
2021/08/04 02:34:40;;;;;;;3.43;3.13;;;18.50;99.90;;;;;;4919256;29;20465;-76
2021/08/04 02:37:10;;;;;;;4.00;3.40;;;18.50;99.90;;;;;;4919668;29;20476;-76
2021/08/04 02:39:37;;;;;;;3.50;3.20;;;18.50;99.90;;;;;;4919079;29;20552;-75
2021/08/04 02:42:05;;;;;;;3.60;3.30;;;18.50;99.90;;;;;;4918516;29;20472;-75
2021/08/04 02:44:32;;;;;;;6.10;3.50;;;18.50;99.90;;;;;;4918688;29;20823;-76
2021/08/04 02:46:59;;;;;;;3.60;3.30;;;18.50;99.90;;;;;;4918434;29;20465;-76
2021/08/04 02:49:27;;;;;;;4.13;3.73;;;18.60;99.90;;;;;;4918125;29;20930;-75
2021/08/04 02:51:54;;;;;;;3.50;3.20;;;18.60;99.90;;;;;;4918439;29;20461;-76
2021/08/04 02:54:21;;;;;;;6.13;3.63;;;18.60;99.90;;;;;;4917495;29;20457;-75
2021/08/04 02:56:48;;;;;;;3.93;2.90;;;18.60;99.90;;;;;;4917963;29;20465;-75
2021/08/04 02:59:15;;;;;;;4.60;4.00;;;18.60;99.90;;;;;;4917591;29;20481;-74
2021/08/04 03:01:41;;;;;;;5.50;3.87;;;18.60;99.90;;;;;;4918101;29;20489;-74
2021/08/04 03:04:08;;;;;;;4.47;3.33;;;18.60;99.90;;;;;;4917546;29;20466;-75
2021/08/04 03:06:36;;;;;;;4.80;3.30;;;18.60;99.90;;;;;;4920777;29;20461;-75
2021/08/04 03:09:03;;;;;;;5.93;3.10;;;18.60;99.90;;;;;;4921606;29;20794;-75
2021/08/04 03:11:30;;;;;;;3.13;2.87;;;18.60;99.90;;;;;;4921335;29;20795;-75
2021/08/04 03:13:57;;;;;;;5.67;3.47;;;18.60;99.90;;;;;;4921241;29;20491;-75
2021/08/04 03:16:24;;;;;;;4.33;3.10;;;18.60;99.90;;;;;;4921533;29;20774;-75
2021/08/04 03:18:50;;;;;;;3.77;3.47;;;18.60;99.90;;;;;;4921721;29;20496;-75
2021/08/04 03:21:17;;;;;;;3.70;3.40;;;18.60;99.90;;;;;;4921174;29;20472;-75
2021/08/04 03:23:45;;;;;;;3.47;3.17;;;18.60;99.90;;;;;;4920912;29;20469;-75
2021/08/04 03:26:12;;;;;;;3.50;3.10;;;18.60;99.90;;;;;;4921327;29;20465;-76
2021/08/04 03:28:39;;;;;;;4.30;3.40;;;18.70;99.90;;;;;;4920907;29;20461;-76
2021/08/04 03:31:06;;;;;;;6.10;3.60;;;18.70;99.90;;;;;;4921015;29;20894;-75
2021/08/04 03:33:32;;;;;;;4.33;3.17;;;18.70;99.90;;;;;;4921272;29;20476;-76
2021/08/04 03:35:59;;;;;;;3.40;3.10;;;18.70;99.90;;;;;;4920914;29;20472;-75
2021/08/04 03:38:26;;;;;;;3.23;2.93;;;18.60;99.90;;;;;;4920793;29;20961;-75
2021/08/04 03:40:54;;;;;;;3.50;3.20;;;18.70;99.90;;;;;;4921082;29;20469;-75
2021/08/04 03:43:21;;;;;;;3.77;2.90;;;18.60;99.90;;;;;;4920985;29;20557;-75
2021/08/04 03:45:47;;;;;;;3.83;3.30;;;18.60;99.90;;;;;;4920555;29;20472;-75
2021/08/04 03:48:14;;;;;;;3.33;3.03;;;18.60;99.90;;;;;;4920533;29;20926;-75
2021/08/04 03:50:41;;;;;;;3.60;3.30;;;18.60;99.90;;;;;;4920596;29;20461;-75
2021/08/04 03:53:08;;;;;;;3.80;3.50;;;18.60;99.90;;;;;;4920714;29;20521;-75
2021/08/04 03:55:35;;;;;;;3.60;3.30;;;18.60;99.90;;;;;;4920745;29;20466;-75
2021/08/04 03:58:03;;;;;;;4.10;3.50;;;18.50;99.90;;;;;;4920313;29;20469;-76
2021/08/04 04:00:30;;;;;;;3.90;3.33;;;18.50;99.90;;;;;;4920350;29;20496;-75
2021/08/04 04:02:56;;;;;;;4.40;4.00;;;18.50;99.90;;;;;;4920572;29;20465;-75
2021/08/04 04:05:23;;;;;;;4.10;3.33;;;18.50;99.90;;;;;;4920121;29;20477;-75
2021/08/04 04:07:50;;;;;;;4.20;3.80;;;18.50;99.90;;;;;;4920321;29;20859;-75
2021/08/04 04:10:17;;;;;;;3.40;3.13;;;18.50;99.90;;;;;;4920363;29;20462;-75
2021/08/04 04:12:44;;;;;;;5.43;3.73;;;18.50;99.90;;;;;;4920282;29;20798;-75
2021/08/04 04:15:12;;;;;;;6.43;3.90;;;18.50;99.90;;;;;;4919957;29;20504;-75
2021/08/04 04:17:39;;;;;;;4.60;3.90;;;18.50;99.90;;;;;;4919247;29;20484;-75
2021/08/04 04:20:07;;;;;;;4.43;4.00;;;18.50;99.90;;;;;;4920203;29;20482;-75
2021/08/04 04:22:34;;;;;;;6.00;4.37;;;18.60;99.90;;;;;;4919901;29;20469;-75
2021/08/04 04:25:00;;;;;;;6.20;4.00;;;18.60;99.90;;;;;;4919961;29;20461;-76
2021/08/04 04:27:27;;;;;;;4.87;3.77;;;18.60;99.90;;;;;;4919917;29;20465;-75
2021/08/04 04:29:54;;;;;;;6.60;3.90;;;18.60;99.90;;;;;;4920095;29;20470;-75
2021/08/04 04:32:22;;;;;;;4.27;3.83;;;18.60;99.90;;;;;;4919793;29;20461;-76
2021/08/04 04:34:49;;;;;;;3.83;3.53;;;18.60;99.90;;;;;;4919940;29;20487;-76
2021/08/04 04:37:16;;;;;;;4.70;4.30;;;18.60;99.90;;;;;;4919795;29;20461;-76
2021/08/04 04:39:42;;;;;;;3.87;3.57;;;18.60;99.90;;;;;;4919765;29;20584;-75
2021/08/04 04:42:09;;;;;;;5.47;3.60;;;18.50;99.90;;;;;;4919783;29;20470;-75
2021/08/04 04:44:36;;;;;;;3.93;3.63;;;18.50;99.90;;;;;;4920883;29;20843;-75
2021/08/04 04:47:03;;;;;;;5.13;4.63;;;18.50;99.90;;;;;;4920684;29;20469;-76
2021/08/04 04:49:31;;;;;;;5.50;4.93;;;18.60;99.90;;;;;;4922705;29;20465;-76
2021/08/04 04:51:58;;;;;;;4.77;3.93;;;18.50;99.90;;;;;;4926041;29;20465;-76
2021/08/04 04:54:24;;;;;;;37.03;26.10;;;18.60;99.90;;;;;;4927187;29;20476;-75
2021/08/04 04:56:51;;;;;;;19.33;17.20;;;18.60;99.90;;;;;;4934707;29;20458;-76
2021/08/04 04:59:18;;;;;;;8.63;5.40;;;18.60;99.90;;;;;;4930688;29;20507;-75
2021/08/04 05:01:46;;;;;;;6.13;4.37;;;18.60;99.90;;;;;;4920446;29;20468;-75
2021/08/04 05:04:13;;;;;;;4.87;4.27;;;18.70;99.90;;;;;;4921001;29;20480;-75
2021/08/04 05:06:41;;;;;;;4.40;4.00;;;18.70;99.90;;;;;;4920026;29;20465;-75
2021/08/04 05:09:08;;;;;;;6.20;4.40;;;18.70;99.90;;;;;;4919972;29;20465;-75
2021/08/04 05:11:34;;;;;;;4.40;4.00;;;18.70;99.90;;;;;;4919839;29;20469;-75
2021/08/04 05:14:01;;;;;;;4.70;4.30;;;18.80;99.90;;;;;;4919394;29;20521;-76
2021/08/04 05:16:28;;;;;;;5.93;5.40;;;18.80;99.90;;;;;;4919126;29;20469;-75
2021/08/04 05:18:54;;;;;;;4.20;3.80;;;18.80;99.90;;;;;;4919435;29;20489;-75
2021/08/04 05:21:22;;;;;;;4.47;4.07;;;18.90;99.90;;;;;;4919728;29;20477;-75
2021/08/04 05:23:50;;;;;;;6.40;5.57;;;18.90;99.90;;;;;;4918916;29;20556;-75
2021/08/04 05:26:19;;;;;;;5.40;4.90;;;18.90;99.90;;;;;;4919073;29;20472;-75
2021/08/04 05:28:46;;;;;;;5.60;5.00;;;19.00;99.90;;;;;;4918192;29;20466;-75
2021/08/04 05:31:12;;;;;;;5.73;5.10;;;19.00;99.90;;;;;;4919279;29;20480;-75
2021/08/04 05:33:39;;;;;;;5.30;4.90;;;19.10;99.90;;;;;;4919009;29;20469;-76
2021/08/04 05:36:06;;;;;;;7.40;5.30;;;19.10;99.90;;;;;;4918782;29;20469;-75
2021/08/04 05:38:32;;;;;;;5.80;5.30;;;19.20;99.90;;;;;;4919048;29;20556;-77
2021/08/04 05:41:01;;;;;;;5.47;4.97;;;19.20;99.90;;;;;;4919395;29;20489;-75
2021/08/04 05:43:27;;;;;;;7.47;4.50;;;19.20;99.90;;;;;;4918827;29;20476;-75
2021/08/04 05:45:54;;;;;;;5.70;5.20;;;19.30;99.90;;;;;;4919130;29;20465;-75
2021/08/04 05:48:21;;;;;;;6.60;5.33;;;19.30;99.90;;;;;;4921802;29;20458;-76
2021/08/04 05:50:48;;;;;;;5.00;4.60;;;19.40;99.90;;;;;;4919555;29;20767;-76
2021/08/04 05:53:14;;;;;;;5.63;5.13;;;19.40;99.90;;;;;;4918658;29;20466;-76
2021/08/04 05:55:41;;;;;;;4.50;4.10;;;19.50;99.90;;;;;;4918684;29;20465;-76
2021/08/04 05:58:09;;;;;;;5.30;4.80;;;19.50;99.90;;;;;;4918362;29;20945;-75
2021/08/04 06:00:36;;;;;;;8.80;4.67;;;19.60;99.90;;;;;;4918484;29;20485;-75
2021/08/04 06:03:03;;;;;;;10.13;4.97;;;19.60;99.90;;;;;;4918472;29;20465;-76
2021/08/04 06:05:29;;;;;;;8.00;5.63;;;19.60;99.90;;;;;;4918623;29;20489;-75
2021/08/04 06:07:56;;;;;;;13.37;5.87;;;19.60;99.90;;;;;;4918637;29;20469;-76
2021/08/04 06:10:23;;;;;;;5.50;5.00;;;19.70;99.90;;;;;;4918253;29;20457;-75
2021/08/04 06:12:49;;;;;;;4.73;4.27;;;19.70;99.90;;;;;;4918121;29;20736;-76
2021/08/04 06:15:18;;;;;;;6.57;4.70;;;19.80;99.90;;;;;;4917920;29;20489;-75
2021/08/04 06:17:44;;;;;;;5.10;4.70;;;19.80;99.90;;;;;;4918190;29;20540;-75
2021/08/04 06:20:12;;;;;;;4.60;3.97;;;19.90;99.90;;;;;;4918222;29;20508;-75
2021/08/04 06:22:38;;;;;;;4.90;4.50;;;19.90;99.90;;;;;;4918320;29;20473;-76
2021/08/04 06:25:06;;;;;;;4.70;4.30;;;20.00;99.90;;;;;;4918190;29;20461;-76
2021/08/04 06:27:33;;;;;;;4.80;4.40;;;20.00;99.90;;;;;;4918031;29;20798;-76
2021/08/04 06:29:59;;;;;;;4.67;4.27;;;20.00;99.90;;;;;;4918080;29;20458;-76
2021/08/04 06:32:27;;;;;;;7.27;4.17;;;20.00;99.90;;;;;;4918030;29;20528;-76
2021/08/04 06:34:54;;;;;;;7.47;4.93;;;20.10;99.90;;;;;;4918168;29;20496;-77
2021/08/04 06:37:21;;;;;;;4.50;4.17;;;20.10;99.90;;;;;;4918216;29;20525;-76
2021/08/04 06:39:47;;;;;;;4.10;3.80;;;20.20;99.90;;;;;;4918372;29;20985;-75
2021/08/04 06:42:14;;;;;;;4.37;4.07;;;20.30;99.90;;;;;;4921842;29;20468;-75
2021/08/04 06:44:41;;;;;;;4.00;3.70;;;20.30;99.90;;;;;;4922368;29;20491;-76
2021/08/04 06:47:08;;;;;;;4.70;3.50;;;20.40;99.90;;;;;;4921836;29;20472;-76
2021/08/04 06:49:36;;;;;;;6.03;3.67;;;20.50;99.90;;;;;;4921852;29;20457;-76
2021/08/04 06:52:03;;;;;;;6.57;4.17;;;20.50;99.90;;;;;;4921742;29;20472;-75
2021/08/04 06:54:32;;;;;;;9.13;4.23;;;20.60;99.90;;;;;;4921573;29;20465;-75
2021/08/04 06:56:59;;;;;;;4.43;4.03;;;20.70;99.90;;;;;;4921313;29;20468;-76
2021/08/04 06:59:26;;;;;;;4.37;4.07;;;20.70;99.90;;;;;;4921555;29;20872;-76
2021/08/04 07:01:52;;;;;;;4.23;3.93;;;20.80;99.90;;;;;;4921772;29;20640;-77
2021/08/04 07:04:19;;;;;;;6.03;3.20;;;20.90;99.90;;;;;;4921360;29;20461;-75
2021/08/04 07:07:01;;;;;;;3.83;3.53;;;20.90;99.90;;;;;;4921270;29;20559;-76
2021/08/04 07:09:28;;;;;;;5.03;3.77;;;21.00;99.90;;;;;;4921634;29;20914;-76
2021/08/04 07:11:56;;;;;;;5.90;3.80;;;21.00;99.90;;;;;;4921563;29;20461;-76
2021/08/04 07:14:23;;;;;;;5.30;3.07;;;21.00;99.90;;;;;;4921342;29;20496;-76
2021/08/04 07:16:50;;;;;;;3.63;3.33;;;21.00;99.90;;;;;;4921562;29;20469;-76
2021/08/04 07:19:17;;;;;;;9.17;3.37;;;21.00;99.90;;;;;;4921645;29;20469;-76
2021/08/04 07:21:45;;;;;;;3.47;3.17;;;21.00;99.90;;;;;;4921576;29;20932;-75
2021/08/04 07:24:14;;;;;;;4.10;3.70;;;21.00;99.90;;;;;;4920797;29;20747;-75
2021/08/04 07:26:42;;;;;;;5.30;3.20;;;21.10;99.90;;;;;;4921207;29;20471;-76
2021/08/04 07:29:09;;;;;;;3.47;3.03;;;21.20;99.90;;;;;;4920612;29;20461;-75
2021/08/04 07:31:36;;;;;;;4.43;3.43;;;21.30;99.90;;;;;;4921243;29;20453;-75
2021/08/04 07:34:04;;;;;;;4.30;3.57;;;21.30;99.90;;;;;;4921130;29;20461;-75
2021/08/04 07:36:31;;;;;;;4.00;3.60;;;21.40;99.90;;;;;;4921323;29;20465;-76
2021/08/04 07:38:58;;;;;;;4.70;3.40;;;21.40;99.90;;;;;;4920775;29;20469;-75
2021/08/04 07:41:26;;;;;;;3.47;3.13;;;21.30;99.90;;;;;;4921110;29;20544;-76
2021/08/04 07:43:52;;;;;;;3.50;3.20;;;21.30;99.90;;;;;;4921144;29;20465;-76
2021/08/04 07:46:21;;;;;;;3.20;2.90;;;21.20;99.90;;;;;;4920458;29;20468;-75
2021/08/04 07:48:49;;;;;;;3.30;3.00;;;21.30;99.90;;;;;;4920591;29;20465;-75
2021/08/04 07:51:16;;;;;;;4.70;3.40;;;21.20;99.90;;;;;;4920334;29;20469;-76
2021/08/04 07:53:43;;;;;;;3.17;2.97;;;21.00;99.90;;;;;;4920815;29;20551;-75
2021/08/04 07:56:11;;;;;;;3.93;3.60;;;21.00;99.90;;;;;;4920485;29;20469;-76
2021/08/04 07:58:39;;;;;;;3.90;3.10;;;21.00;99.90;;;;;;4920075;29;20465;-76
2021/08/04 08:01:06;;;;;;;6.00;3.40;;;21.10;99.90;;;;;;4920586;29;20548;-75
2021/08/04 08:03:33;;;;;;;7.10;4.23;;;21.10;99.90;;;;;;4920786;29;20760;-75
2021/08/04 08:05:59;;;;;;;11.93;3.77;;;21.20;99.90;;;;;;4920508;29;20481;-76
2021/08/04 08:08:29;;;;;;;9.87;3.60;;;21.30;99.90;;;;;;4920683;29;20461;-75
2021/08/04 08:10:56;;;;;;;10.17;4.37;;;21.50;99.90;;;;;;4920260;29;20461;-76
2021/08/04 08:13:23;;;;;;;6.40;3.87;;;21.60;99.90;;;;;;4919993;29;20584;-76
2021/08/04 08:15:52;;;;;;;5.13;4.20;;;21.80;99.90;;;;;;4920509;29;20446;-72
2021/08/04 08:18:19;;;;;;;5.07;3.43;;;21.90;99.90;;;;;;4919897;29;20560;-73
2021/08/04 08:20:47;;;;;;;5.20;3.70;;;22.00;99.90;;;;;;4919877;29;20482;-73
2021/08/04 08:23:13;;;;;;;3.43;3.23;;;22.10;99.90;;;;;;4920066;29;20588;-73
2021/08/04 08:25:40;;;;;;;4.00;3.40;;;22.20;99.90;;;;;;4919904;29;20461;-73
2021/08/04 08:28:08;;;;;;;6.37;3.63;;;22.20;99.90;;;;;;4921418;29;20527;-74
2021/08/04 08:30:37;;;;;;;4.20;3.90;;;22.20;99.90;;;;;;4919661;29;20540;-75
2021/08/04 08:33:05;;;;;;;3.43;3.13;;;22.30;99.90;;;;;;4919969;29;20493;-74
2021/08/04 08:35:32;;;;;;;5.57;3.17;;;22.40;99.90;;;;;;4919536;29;20484;-74
2021/08/04 08:37:59;;;;;;;5.10;2.97;;;22.40;99.90;;;;;;4919670;29;20461;-77
2021/08/04 08:40:27;;;;;;;4.00;3.27;;;22.50;99.90;;;;;;4919115;29;20489;-74
2021/08/04 08:42:54;;;;;;;4.80;3.20;;;22.60;99.90;;;;;;4919175;29;20465;-75
2021/08/04 08:45:21;;;;;;;5.50;3.40;;;22.60;99.90;;;;;;4919600;29;20458;-74
2021/08/04 08:47:48;;;;;;;3.97;3.50;;;22.70;99.90;;;;;;4919018;29;20917;-74
2021/08/04 08:50:18;;;;;;;16.33;3.70;;;22.70;99.90;;;;;;4919269;29;20814;-73
2021/08/04 08:52:48;;;;;;;3.03;2.80;;;22.70;99.90;;;;;;4919262;29;20481;-73
2021/08/04 08:55:15;;;;;;;3.43;3.07;;;22.70;99.90;;;;;;4919376;29;20469;-73
2021/08/04 08:57:42;;;;;;;3.47;3.17;;;22.80;99.90;;;;;;4919402;29;20926;-73
2021/08/04 09:00:10;;;;;;;3.43;3.13;;;22.90;99.90;;;;;;4918764;29;20485;-73
2021/08/04 09:02:37;;;;;;;2.97;2.77;;;23.10;99.90;;;;;;4919761;29;20462;-75
2021/08/04 09:05:06;;;;;;;3.90;2.50;;;23.30;99.90;;;;;;4919044;29;20469;-74
2021/08/04 09:07:36;;;;;;;3.13;2.93;;;23.40;99.90;;;;;;4918834;29;20471;-74
2021/08/04 09:10:20;;;;;;;4.80;3.00;;;23.50;99.90;;;;;;4919502;29;20493;-74
2021/08/04 09:12:48;;;;;;;5.70;2.70;;;23.70;99.90;;;;;;4918697;29;20449;-74
2021/08/04 09:15:30;;;;;;;3.53;3.23;;;23.80;99.90;;;;;;4918509;29;20493;-73
2021/08/04 09:18:02;;;;;;;6.00;3.93;;;23.90;99.90;;;;;;4918620;29;20461;-74
2021/08/04 09:20:29;;;;;;;3.07;2.47;;;24.10;99.90;;;;;;4918906;29;20469;-74
2021/08/04 09:23:02;;;;;;;2.57;2.33;;;24.20;99.90;;;;;;4919141;29;20791;-74
2021/08/04 09:25:29;;;;;;;2.57;2.37;;;24.30;99.90;;;;;;4918384;29;20469;-74
2021/08/04 09:27:57;;;;;;;2.63;2.40;;;24.30;99.90;;;;;;4918671;29;20508;-73
2021/08/04 09:30:30;;;;;;;3.03;2.30;;;24.40;99.90;;;;;;4918590;29;20465;-73
2021/08/04 09:33:12;;;;;;;5.33;2.83;;;24.40;99.90;;;;;;4919279;29;20731;-74
2021/08/04 09:35:48;;;;;;;3.50;2.60;;;24.50;99.90;;;;;;4918915;29;20465;-75
2021/08/04 09:38:16;;;;;;;2.90;2.60;;;24.30;99.90;;;;;;4918638;29;20552;-75
2021/08/04 09:40:44;;;;;;;3.00;2.70;;;24.30;99.90;;;;;;4918219;29;20974;-74
2021/08/04 09:43:11;;;;;;;2.83;2.60;;;24.20;99.90;;;;;;4918608;29;20461;-74
2021/08/04 09:45:41;;;;;;;2.97;2.40;;;24.20;99.90;;;;;;4918855;29;20771;-73
2021/08/04 09:48:09;;;;;;;2.90;2.67;;;24.20;99.90;;;;;;4918429;29;20520;-74
2021/08/04 09:50:51;;;;;;;3.30;2.70;;;24.20;99.90;;;;;;4917950;29;20470;-74
2021/08/04 09:53:25;;;;;;;2.33;2.13;;;24.30;99.90;;;;;;4918812;29;20450;-74
2021/08/04 09:56:07;;;;;;;2.80;2.13;;;24.50;99.90;;;;;;4918162;29;20450;-74
2021/08/04 09:58:34;;;;;;;7.23;3.20;;;24.60;99.90;;;;;;4918717;29;20501;-74
2021/08/04 10:01:02;;;;;;;2.00;1.90;;;24.70;99.90;;;;;;4917945;29;20489;-74
2021/08/04 10:03:29;;;;;;;3.30;2.30;;;24.90;99.90;;;;;;4918007;29;20472;-74
2021/08/04 10:05:56;;;;;;;2.50;2.30;;;25.10;99.90;;;;;;4918078;29;20465;-73
2021/08/04 10:08:25;;;;;;;3.00;2.67;;;25.20;99.90;;;;;;4918296;29;20909;-74
2021/08/04 10:10:53;;;;;;;2.70;2.50;;;25.30;99.90;;;;;;4918114;29;20457;-73
2021/08/04 10:13:22;;;;;;;2.70;2.50;;;25.40;99.90;;;;;;4917910;29;20949;-74
2021/08/04 10:15:50;;;;;;;2.60;2.27;;;25.40;99.90;;;;;;4923212;29;20457;-74
2021/08/04 10:18:21;;;;;;;2.40;1.90;;;25.50;99.90;;;;;;4924199;29;20442;-74
2021/08/04 10:20:50;;;;;;;2.47;2.27;;;25.60;99.90;;;;;;4924170;29;20485;-74
2021/08/04 10:23:19;;;;;;;2.10;2.00;;;25.70;99.90;;;;;;4924395;29;20906;-74
2021/08/04 10:25:48;;;;;;;3.47;2.50;;;25.70;99.90;;;;;;4923913;29;20469;-74
2021/08/04 10:28:15;;;;;;;2.87;2.10;;;25.70;99.90;;;;;;4924784;29;20564;-74
2021/08/04 10:30:44;;;;;;;3.53;3.30;;;25.70;99.90;;;;;;4924303;29;20472;-73
2021/08/04 10:33:12;;;;;;;2.07;1.93;;;25.60;99.90;;;;;;4924222;29;20529;-74
2021/08/04 10:35:43;;;;;;;3.17;2.10;;;25.60;99.90;;;;;;4924378;29;20469;-74
2021/08/04 10:38:13;;;;;;;2.60;1.90;;;25.60;99.90;;;;;;4927983;29;20453;-74
2021/08/04 10:40:40;;;;;;;3.00;2.20;;;25.60;99.90;;;;;;4925788;29;20556;-74
2021/08/04 10:43:08;;;;;;;2.30;2.10;;;25.60;99.90;;;;;;4926785;29;20465;-73
2021/08/04 10:45:36;;;;;;;3.37;2.00;;;25.60;99.90;;;;;;4926882;29;20457;-74
2021/08/04 10:48:24;;;;;;;2.63;2.43;;;25.60;99.90;;;;;;4925035;29;20469;-74
2021/08/04 10:51:14;;;;;;;2.43;2.23;;;25.60;99.90;;;;;;4925075;29;20453;-74
2021/08/04 10:54:14;;;;;;;3.50;2.43;;;25.50;99.90;;;;;;4926390;29;20492;-73
2021/08/04 10:57:09;;;;;;;2.23;2.13;;;25.40;99.90;;;;;;4927653;29;20440;-74
2021/08/04 10:59:39;;;;;;;2.83;2.30;;;25.30;99.90;;;;;;4927644;29;20936;-73
2021/08/04 11:02:30;;;;;;;4.67;3.10;;;25.30;99.90;;;;;;4926708;29;20497;-73
2021/08/04 11:04:58;;;;;;;2.80;2.60;;;25.30;99.90;;;;;;4919296;29;20528;-74
2021/08/04 11:07:25;;;;;;;4.13;2.70;;;25.30;99.90;;;;;;4926945;29;20457;-75
2021/08/04 11:10:06;;;;;;;2.90;2.00;;;25.20;99.90;;;;;;4925846;29;20545;-74
2021/08/04 11:12:49;;;;;;;2.30;2.03;;;25.10;99.90;;;;;;4924368;29;20917;-74
2021/08/04 11:15:33;;;;;;;4.30;2.50;;;25.10;99.90;;;;;;4923853;29;20489;-74
2021/08/04 11:18:03;;;;;;;3.20;2.37;;;25.20;99.90;;;;;;4924017;29;20445;-74
2021/08/04 11:20:30;;;;;;;4.03;2.30;;;25.20;99.90;;;;;;4924030;29;20526;-74
2021/08/04 11:22:57;;;;;;;2.63;2.43;;;25.30;99.90;;;;;;4923495;29;20461;-74
2021/08/04 11:25:33;;;;;;;2.40;2.20;;;25.40;99.90;;;;;;4923793;29;20473;-73
2021/08/04 11:28:06;;;;;;;5.93;2.23;;;25.50;99.90;;;;;;4921781;29;20472;-74
2021/08/04 11:30:36;;;;;;;2.20;2.03;;;25.90;99.90;;;;;;4921324;29;20474;-74
2021/08/04 11:33:27;;;;;;;2.20;2.00;;;26.50;99.90;;;;;;4921218;29;20461;-74
2021/08/04 11:36:01;;;;;;;2.83;1.80;;;27.20;99.90;;;;;;4920731;29;20917;-74
2021/08/04 11:38:40;;;;;;;3.83;2.00;;;28.10;99.90;;;;;;4921838;29;20784;-75
2021/08/04 11:41:26;;;;;;;5.77;1.93;;;29.00;99.90;;;;;;4923504;29;20492;-75
2021/08/04 11:44:01;;;;;;;1.70;1.60;;;29.80;99.90;;;;;;4923225;29;20777;-75
2021/08/04 11:46:35;;;;;;;2.30;2.03;;;30.50;99.90;;;;;;4920948;29;20804;-74
2021/08/04 11:49:03;;;;;;;2.33;1.60;;;31.50;99.90;;;;;;4920830;29;20756;-74
2021/08/04 11:51:32;;;;;;;2.07;1.90;;;32.20;99.60;;;;;;4920568;29;20461;-75
2021/08/04 11:53:59;;;;;;;1.70;1.60;;;32.60;98.30;;;;;;4920934;29;20767;-73
2021/08/04 11:56:26;;;;;;;1.70;1.50;;;33.10;95.30;;;;;;4920446;29;20483;-74
2021/08/04 11:58:53;;;;;;;8.90;1.87;;;33.50;92.40;;;;;;4920308;29;20473;-74
2021/08/04 12:01:20;;;;;;;2.63;1.80;;;33.70;90.70;;;;;;4920059;29;20823;-74
2021/08/04 12:04:06;;;;;;;3.93;1.80;;;34.10;90.40;;;;;;4920682;29;20473;-74
2021/08/04 12:06:36;;;;;;;4.13;2.00;;;34.60;86.70;;;;;;4920178;29;20911;-74
2021/08/04 12:09:28;;;;;;;2.70;2.20;;;35.10;86.40;;;;;;4920362;29;20453;-73
2021/08/04 12:11:56;;;;;;;3.23;1.40;;;35.50;81.60;;;;;;4906477;29;20644;-74
2021/08/04 12:14:23;;;;;;;1.70;1.60;;;36.00;79.90;;;;;;4920626;29;20593;-74
2021/08/04 12:16:53;;;;;;;3.40;3.10;;;36.50;72.10;;;;;;4921753;29;20461;-74
2021/08/04 12:19:44;;;;;;;2.10;1.50;;;36.90;71.00;;;;;;4920234;29;20468;-74
2021/08/04 12:22:18;;;;;;;3.00;1.57;;;37.30;67.30;;;;;;4920090;29;20969;-74
2021/08/04 12:24:48;;;;;;;3.67;1.30;;;37.70;64.00;;;;;;4920103;29;20469;-73
2021/08/04 12:27:28;;;;;;;2.83;1.73;;;37.80;60.40;;;;;;4919933;29;20465;-74
2021/08/04 12:30:10;;;;;;;2.40;1.60;;;37.80;59.70;;;;;;4919590;29;20460;-74
2021/08/04 12:32:54;;;;;;;1.50;1.30;;;37.90;60.40;;;;;;4919576;29;20445;-74
2021/08/04 12:35:25;;;;;;;2.03;1.40;;;38.10;57.30;;;;;;4919455;29;20449;-74
2021/08/04 12:37:52;;;;;;;2.00;1.57;;;37.90;57.50;;;;;;4918964;29;20533;-74
2021/08/04 12:40:20;;;;;;;4.00;1.80;;;37.90;57.60;;;;;;4919178;29;20465;-73
2021/08/04 12:42:46;;;;;;;1.50;1.40;;;38.10;56.60;;;;;;4919193;29;20489;-74
2021/08/04 12:45:25;;;;;;;1.30;1.20;;;38.40;56.00;;;;;;4919402;29;20528;-73
2021/08/04 12:47:55;;;;;;;1.87;1.50;;;38.70;54.90;;;;;;4919107;29;20603;-74
2021/08/04 12:50:25;;;;;;;2.70;1.60;;;39.00;53.20;;;;;;4918640;29;21040;-74
2021/08/04 12:52:52;;;;;;;5.77;1.83;;;39.00;51.60;;;;;;4919077;29;20938;-74
2021/08/04 12:55:19;;;;;;;3.27;1.60;;;38.70;51.90;;;;;;4919079;29;20488;-74